Capitol Logistics 223


KSEA
Seattle-Tacoma International Airport
Seattle, Washington, US
KRIV
March Air Reserve Base
Riverside, California, US

Activity Log

Date Flight Route Aircraft Duration
No Flights Yet

Route Details

Aircraft Information
Primary: Boeing 767-300BDSF
Backup: Not Available
Route Data
Distance: 833nm
Sched. Duration: 2h 10m
Avg. Duration: 0h 00m (-211m)
Times Flown: 0
Recm'd Route: SUMMA1 SUMMA JINMO Q7 JAGWA LANDO PMD MARCH4
Planned Altitude: 35,000ft
Origin Wx: KSEA 311153Z 20007KT 10SM BKN011 BKN018 04/03 A2993 RMK AO2 SLP143 60006 70037 T00440028 10056 20044 53004
Dest. Wx: KRIV 311158Z AUTO 00000KT 10SM CLR 06/04 A3007 RMK AO2 SLP179 T00600042 10100 20051 57019
Notes:

Financial History
Total Freight: 0lbs
Average Load: 0lbs/flt
Fuel Used: 0lbs
Avg. Fuel Used: 0lbs/flt
Fuel Expense: $0
Avg. Fuel Expense: $0
Avg. Fuel Cost: $0/lbs
Total Gross Income: $0
Pilot Pay: $0
Total Expenses: $0
Total Revenue: $0
Average Revenue: $0